Time;durP1;ratioP1;P1;durP2;ratioP2;P2;SDS_P1;SDS_P2;PMS_P1;PMS_P2;Temp;Humidity;BMP_temperature;BMP_pressure;BME280_temperature;BME280_humidity;BME280_pressure;Samples;Min_cycle;Max_cycle;Signal;HPM_P1;HPM_P2
2022/09/28 00:00:34;;;;;;;2.97;2.60;;;10.80;99.90;;;;;;10478742;28;20228;-82
2022/09/28 00:06:01;;;;;;;2.80;2.50;;;10.80;99.90;;;;;;10464489;28;20284;-82
2022/09/28 00:11:24;;;;;;;3.97;2.40;;;10.70;99.90;;;;;;10456204;28;20362;-82
2022/09/28 00:16:45;;;;;;;3.07;2.50;;;10.60;99.90;;;;;;10450231;28;20283;-82
2022/09/28 00:22:06;;;;;;;4.30;2.77;;;10.70;99.90;;;;;;10478303;28;20463;-82
2022/09/28 00:27:28;;;;;;;2.90;2.60;;;10.60;99.90;;;;;;10472251;28;20194;-81
2022/09/28 00:32:50;;;;;;;3.93;2.40;;;10.70;99.90;;;;;;10463880;28;20225;-82
2022/09/28 00:38:13;;;;;;;2.53;2.17;;;10.70;99.90;;;;;;10451685;28;20203;-82
2022/09/28 00:43:34;;;;;;;2.87;2.50;;;10.70;99.90;;;;;;10436256;28;20229;-82
2022/09/28 00:49:02;;;;;;;2.37;2.17;;;10.70;99.90;;;;;;10455672;28;20411;-82
2022/09/28 00:54:23;;;;;;;2.30;2.00;;;10.70;99.90;;;;;;10477386;28;20219;-83
2022/09/28 00:59:45;;;;;;;3.43;2.50;;;10.70;99.90;;;;;;10477136;28;20293;-81
2022/09/28 01:05:09;;;;;;;2.30;2.10;;;10.70;99.90;;;;;;10462476;28;20539;-82
2022/09/28 01:10:31;;;;;;;2.40;2.20;;;10.70;99.90;;;;;;10475983;28;20346;-82
2022/09/28 01:16:43;;;;;;;2.77;2.33;;;10.70;99.90;;;;;;10448987;28;20227;-81
2022/09/28 01:22:33;;;;;;;2.90;2.60;;;10.60;99.90;;;;;;10476359;28;20227;-82
2022/09/28 01:28:03;;;;;;;5.30;2.70;;;10.70;99.90;;;;;;10472442;28;20279;-83
2022/09/28 01:33:39;;;;;;;7.53;3.40;;;10.60;99.90;;;;;;10462512;28;20222;-82
2022/09/28 01:39:18;;;;;;;4.17;3.70;;;10.70;99.90;;;;;;10476115;28;20214;-82
2022/09/28 01:44:44;;;;;;;6.10;5.33;;;10.70;99.90;;;;;;10462285;28;20197;-82
2022/09/28 01:50:16;;;;;;;6.80;5.57;;;10.70;99.90;;;;;;10447867;28;20396;-81
2022/09/28 01:55:54;;;;;;;8.27;5.47;;;10.80;99.90;;;;;;10455394;28;20219;-82
2022/09/28 02:01:29;;;;;;;5.50;4.50;;;10.70;99.90;;;;;;10442422;28;20382;-82
2022/09/28 02:07:05;;;;;;;6.93;4.93;;;10.80;99.90;;;;;;10428493;28;20315;-81
2022/09/28 02:12:38;;;;;;;6.83;5.40;;;10.80;99.90;;;;;;10475182;28;20206;-82
2022/09/28 02:18:00;;;;;;;7.73;5.87;;;10.80;99.90;;;;;;10469049;28;20569;-83
2022/09/28 02:23:23;;;;;;;7.93;6.33;;;10.80;99.90;;;;;;10468431;28;20241;-81
2022/09/28 02:28:45;;;;;;;8.60;5.73;;;10.80;99.90;;;;;;10465567;28;20245;-81
2022/09/28 02:34:06;;;;;;;8.67;6.80;;;10.90;99.90;;;;;;10482469;28;20198;-81
2022/09/28 02:39:28;;;;;;;8.03;6.07;;;10.90;99.90;;;;;;10481510;28;20252;-81
2022/09/28 02:45:27;;;;;;;6.33;5.40;;;11.00;99.90;;;;;;10467467;28;20433;-82
2022/09/28 02:50:58;;;;;;;4.30;3.90;;;10.90;99.90;;;;;;10456211;28;20256;-82
2022/09/28 02:56:30;;;;;;;8.23;5.00;;;10.90;99.90;;;;;;10467030;28;20198;-81
2022/09/28 03:01:57;;;;;;;8.10;5.97;;;10.90;99.90;;;;;;10466062;28;20241;-81
2022/09/28 03:07:27;;;;;;;6.30;5.30;;;10.90;99.90;;;;;;10466257;28;20238;-82
2022/09/28 03:12:50;;;;;;;7.07;5.20;;;10.90;99.90;;;;;;10460113;28;20200;-82
2022/09/28 03:18:12;;;;;;;12.43;7.83;;;10.90;99.90;;;;;;10466123;28;20425;-82
2022/09/28 03:23:34;;;;;;;6.10;5.40;;;10.90;99.90;;;;;;10480600;28;20223;-82
2022/09/28 03:28:55;;;;;;;7.73;4.87;;;10.90;99.90;;;;;;10463381;28;20203;-82
2022/09/28 03:34:19;;;;;;;4.93;4.43;;;10.90;99.90;;;;;;10451909;28;20436;-82
2022/09/28 03:39:40;;;;;;;6.37;4.60;;;10.90;99.90;;;;;;10465380;28;20208;-82
2022/09/28 03:45:02;;;;;;;5.67;4.27;;;10.90;99.90;;;;;;10451380;28;20203;-81
2022/09/28 03:50:23;;;;;;;7.00;4.40;;;10.90;99.90;;;;;;10450681;28;20206;-82
2022/09/28 03:55:45;;;;;;;4.63;3.87;;;10.80;99.90;;;;;;10464760;28;20212;-82
2022/09/28 04:01:14;;;;;;;4.87;4.03;;;10.90;99.90;;;;;;10479287;28;20263;-83
2022/09/28 04:06:38;;;;;;;6.60;5.23;;;10.90;99.90;;;;;;10467051;28;20236;-81
2022/09/28 04:11:59;;;;;;;10.10;8.07;;;10.90;99.90;;;;;;10479095;28;20204;-82
2022/09/28 04:17:23;;;;;;;7.33;5.87;;;10.90;99.90;;;;;;10451109;28;20419;-82
2022/09/28 04:22:45;;;;;;;5.63;5.03;;;10.90;99.90;;;;;;10478458;28;20271;-81
2022/09/28 04:33:48;;;;;;;8.70;5.00;;;10.90;99.90;;;;;;10463666;28;20206;-82
2022/09/28 04:39:11;;;;;;;5.57;5.03;;;10.80;99.90;;;;;;10463434;28;20202;-81
2022/09/28 04:44:33;;;;;;;5.43;4.40;;;10.80;99.90;;;;;;10463723;28;20193;-82
2022/09/28 04:49:59;;;;;;;6.07;4.43;;;10.80;99.90;;;;;;10457047;28;20230;-82
2022/09/28 04:55:31;;;;;;;10.37;4.20;;;10.70;99.90;;;;;;10477298;28;20192;-81
2022/09/28 05:00:56;;;;;;;4.87;3.97;;;10.80;99.90;;;;;;10421026;28;20532;-81
2022/09/28 05:06:36;;;;;;;5.27;4.70;;;10.80;99.90;;;;;;10444357;28;20227;-82
2022/09/28 05:11:59;;;;;;;5.50;4.90;;;10.70;99.90;;;;;;10461722;28;20210;-82
2022/09/28 05:17:22;;;;;;;6.57;5.40;;;10.80;99.90;;;;;;10448916;28;20260;-82
2022/09/28 05:23:04;;;;;;;7.40;5.70;;;10.80;99.90;;;;;;10476090;28;20232;-82
2022/09/28 05:28:30;;;;;;;7.80;5.83;;;10.70;99.90;;;;;;10470097;28;20276;-82
2022/09/28 05:34:11;;;;;;;7.10;5.67;;;10.70;99.90;;;;;;10399650;28;20204;-81
2022/09/28 05:39:33;;;;;;;9.93;6.00;;;10.70;99.90;;;;;;10368599;28;20204;-81
2022/09/28 05:44:54;;;;;;;7.10;5.63;;;10.70;99.90;;;;;;10384848;28;20208;-81
2022/09/28 05:50:16;;;;;;;6.63;5.17;;;10.70;99.90;;;;;;10384761;28;20239;-82
2022/09/28 05:55:39;;;;;;;5.93;4.93;;;10.80;99.90;;;;;;10368862;28;20597;-81
2022/09/28 06:01:00;;;;;;;6.90;5.80;;;10.70;99.90;;;;;;10357727;28;20254;-82
2022/09/28 06:06:23;;;;;;;6.63;5.93;;;10.80;99.90;;;;;;10346212;28;20262;-82
2022/09/28 06:11:44;;;;;;;10.63;6.10;;;10.80;99.90;;;;;;10455567;28;20211;-82
2022/09/28 06:17:24;;;;;;;5.97;4.90;;;10.80;99.90;;;;;;10470927;28;20204;-81
2022/09/28 06:23:06;;;;;;;6.27;5.30;;;10.80;99.90;;;;;;10471100;28;20245;-81
2022/09/28 06:28:28;;;;;;;5.57;4.73;;;10.90;99.90;;;;;;10484640;28;20207;-81
2022/09/28 06:33:50;;;;;;;6.90;5.40;;;10.80;99.90;;;;;;10468097;28;20487;-81
2022/09/28 06:39:12;;;;;;;8.63;6.73;;;10.80;99.90;;;;;;10429723;28;20539;-81
2022/09/28 06:44:34;;;;;;;16.77;9.53;;;10.80;99.90;;;;;;10435478;28;20271;-81
2022/09/28 06:50:15;;;;;;;13.73;7.37;;;10.80;99.90;;;;;;10454850;28;20272;-79
2022/09/28 06:55:57;;;;;;;11.17;8.70;;;10.90;99.90;;;;;;10479837;28;20204;-79
2022/09/28 07:01:18;;;;;;;16.83;10.50;;;10.90;99.90;;;;;;10466203;28;20224;-81
2022/09/28 07:06:49;;;;;;;15.90;12.17;;;10.90;99.90;;;;;;10465486;28;20281;-80
2022/09/28 07:12:31;;;;;;;9.53;7.70;;;10.90;99.90;;;;;;10455145;28;20222;-80
2022/09/28 07:18:01;;;;;;;8.27;6.80;;;10.90;99.90;;;;;;10434025;28;20281;-81
2022/09/28 07:23:28;;;;;;;7.97;5.80;;;11.00;99.90;;;;;;10419136;28;20235;-81
2022/09/28 07:29:05;;;;;;;5.60;4.90;;;11.00;99.90;;;;;;10435855;28;20203;-81
2022/09/28 07:34:44;;;;;;;6.33;5.43;;;11.00;50.50;;;;;;10474074;28;20208;-82
2022/09/28 07:45:59;;;;;;;7.37;5.73;;;11.00;24.50;;;;;;10459896;28;20208;-80
2022/09/28 07:51:22;;;;;;;8.63;5.70;;;11.00;6.40;;;;;;10444955;28;20533;-81
2022/09/28 07:56:53;;;;;;;7.77;5.87;;;11.10;34.10;;;;;;10458827;28;20207;-80
2022/09/28 08:02:41;;;;;;;8.63;6.23;;;11.00;27.30;;;;;;10411601;28;20433;-81
2022/09/28 08:08:02;;;;;;;6.80;5.83;;;11.00;1.60;;;;;;10416229;28;20305;-79
2022/09/28 08:13:26;;;;;;;5.43;4.87;;;11.00;1.00;;;;;;10415817;28;20205;-80
2022/09/28 08:19:09;;;;;;;7.03;5.57;;;11.00;1.00;;;;;;10426675;28;20217;-82
2022/09/28 08:24:31;;;;;;;6.73;5.60;;;11.00;1.00;;;;;;10431567;28;20273;-80
2022/09/28 08:29:53;;;;;;;6.40;4.33;;;11.00;1.00;;;;;;10424951;28;20238;-79
2022/09/28 08:35:45;;;;;;;4.93;4.47;;;11.00;1.00;;;;;;10427632;28;20481;-83
2022/09/28 08:41:39;;;;;;;9.93;5.23;;;11.20;1.00;;;;;;10453858;28;20646;-79
2022/09/28 08:53:43;;;;;;;4.60;4.10;;;11.30;1.00;;;;;;10439707;28;20184;-80
2022/09/28 08:59:21;;;;;;;5.97;4.20;;;11.30;1.00;;;;;;10444285;28;20231;-81
2022/09/28 09:04:50;;;;;;;4.93;4.03;;;11.40;1.00;;;;;;10464816;28;20551;-82
2022/09/28 09:10:52;;;;;;;7.37;4.07;;;11.50;1.00;;;;;;10464139;28;20303;-80
2022/09/28 09:16:54;;;;;;;3.93;3.40;;;11.50;1.00;;;;;;10450700;28;20196;-81
2022/09/28 09:23:04;;;;;;;4.60;3.90;;;11.50;1.00;;;;;;10441726;28;20444;-80
2022/09/28 09:28:47;;;;;;;5.47;3.40;;;11.60;1.00;;;;;;10463423;28;20232;-80
2022/09/28 09:34:31;;;;;;;4.47;3.73;;;11.60;1.00;;;;;;10475639;28;20207;-81
2022/09/28 09:40:37;;;;;;;4.87;4.07;;;11.70;1.00;;;;;;10444717;28;20222;-81
2022/09/28 09:46:36;;;;;;;4.00;3.10;;;11.50;1.00;;;;;;10466155;28;20215;-81
2022/09/28 09:52:34;;;;;;;4.40;3.07;;;11.50;1.00;;;;;;10442293;28;20202;-81
2022/09/28 09:58:27;;;;;;;3.77;3.40;;;11.50;1.00;;;;;;10428501;28;20234;-81
2022/09/28 10:03:57;;;;;;;4.57;3.10;;;11.70;1.00;;;;;;10258291;28;20273;-80
2022/09/28 10:09:24;;;;;;;3.20;2.93;;;11.70;1.00;;;;;;10242784;29;20210;-83
2022/09/28 10:14:47;;;;;;;5.97;3.40;;;11.70;1.00;;;;;;10270799;28;20208;-80
2022/09/28 10:20:13;;;;;;;6.73;3.73;;;11.80;99.90;;;;;;10270872;29;20214;-81
2022/09/28 10:25:37;;;;;;;8.13;4.27;;;12.00;99.90;;;;;;10270644;29;20215;-82
2022/09/28 10:30:58;;;;;;;6.60;3.70;;;12.30;99.90;;;;;;10271026;29;20212;-78
2022/09/28 10:49:16;;;;;;;7.03;1.60;;;14.30;1.00;;;;;;10549680;27;20557;-79
2022/09/28 10:54:52;;;;;;;7.07;1.80;;;15.10;99.90;;;;;;10549895;28;20250;-82
2022/09/28 11:00:39;;;;;;;5.95;4.15;;;16.00;95.60;;;;;;10520584;28;20191;-78
2022/09/28 11:06:11;;;;;;;19.17;11.30;;;15.90;93.50;;;;;;10534321;28;20220;-78
2022/09/28 11:11:40;;;;;;;4.40;2.92;;;16.10;91.20;;;;;;10520242;28;20188;-78
2022/09/28 11:17:42;;;;;;;3.20;1.70;;;16.30;88.60;;;;;;10533900;28;20280;-77
2022/09/28 11:23:28;;;;;;;2.45;1.55;;;17.00;41.60;;;;;;10519263;28;20207;-78
2022/09/28 11:28:57;;;;;;;3.05;1.75;;;16.10;1.00;;;;;;10557054;28;20233;-78
2022/09/28 11:34:43;;;;;;;4.00;1.60;;;15.20;1.00;;;;;;10539515;28;20293;-77
2022/09/28 11:40:20;;;;;;;5.05;2.17;;;14.80;99.90;;;;;;10538630;28;20202;-78
2022/09/28 11:46:05;;;;;;;2.72;2.10;;;14.80;1.00;;;;;;10524289;28;20248;-79
2022/09/28 11:51:30;;;;;;;1.98;1.52;;;15.60;99.90;;;;;;10532683;28;20271;-78
2022/09/28 11:56:52;;;;;;;4.57;2.30;;;15.80;1.00;;;;;;10525235;28;20233;-80
2022/09/28 12:02:35;;;;;;;3.47;2.23;;;15.40;1.00;;;;;;10503921;28;20269;-81
2022/09/28 12:08:27;;;;;;;2.13;1.60;;;15.00;1.00;;;;;;10504334;28;20256;-82
2022/09/28 12:14:38;;;;;;;3.90;1.40;;;14.60;1.00;;;;;;10491570;28;20219;-81
2022/09/28 12:20:19;;;;;;;7.27;1.90;;;14.30;15.20;;;;;;10494297;28;20198;-87
2022/09/28 12:25:50;;;;;;;2.70;1.63;;;14.00;99.90;;;;;;10485827;28;20287;-80
2022/09/28 12:31:37;;;;;;;2.37;1.57;;;13.80;1.00;;;;;;10498642;28;20281;-81
2022/09/28 12:37:36;;;;;;;2.03;1.73;;;13.80;1.00;;;;;;10485238;28;20211;-90
2022/09/28 12:43:32;;;;;;;1.50;1.40;;;14.60;1.00;;;;;;10492574;28;20221;-81
2022/09/28 12:49:13;;;;;;;3.17;1.90;;;15.30;1.00;;;;;;10481026;28;20601;-78
2022/09/28 12:55:11;;;;;;;6.03;3.53;;;15.00;1.00;;;;;;10521675;28;20262;-79
2022/09/28 13:00:48;;;;;;;5.83;3.93;;;14.60;1.00;;;;;;10516784;28;20206;-80
2022/09/28 13:06:33;;;;;;;7.57;3.22;;;14.30;1.00;;;;;;10526501;28;20283;-82
2022/09/28 13:12:03;;;;;;;5.45;3.08;;;15.40;1.00;;;;;;10517351;28;20275;-83
2022/09/28 13:17:43;;;;;;;4.30;1.90;;;16.30;99.90;;;;;;10517872;28;20241;-81
2022/09/28 13:23:14;;;;;;;6.25;2.55;;;16.10;22.00;;;;;;10500938;28;20222;-87
2022/09/28 13:28:36;;;;;;;10.57;4.07;;;15.20;99.90;;;;;;10502821;28;20262;-83
2022/09/28 13:34:00;;;;;;;8.87;3.90;;;14.60;99.90;;;;;;10517436;28;20196;-79
2022/09/28 13:39:44;;;;;;;15.20;7.23;;;14.20;99.90;;;;;;10501082;28;20218;-79
2022/09/28 13:45:21;;;;;;;18.67;10.87;;;13.90;1.00;;;;;;10500004;28;20244;-87
2022/09/28 13:51:20;;;;;;;13.27;8.30;;;13.70;1.00;;;;;;10481605;28;20560;-81
2022/09/28 13:57:09;;;;;;;13.93;10.03;;;13.50;1.00;;;;;;10499103;28;20405;-82
2022/09/28 14:02:40;;;;;;;12.53;8.83;;;13.40;1.00;;;;;;10487027;28;20219;-88
2022/09/28 14:08:07;;;;;;;7.90;5.63;;;13.30;1.00;;;;;;10511659;28;20223;-82
2022/09/28 14:13:41;;;;;;;6.57;4.10;;;13.30;1.00;;;;;;10500290;28;20200;-88
2022/09/28 14:19:08;;;;;;;8.30;5.73;;;13.20;1.00;;;;;;10515168;28;20273;-87
2022/09/28 14:24:32;;;;;;;8.20;5.27;;;13.30;1.30;;;;;;10507213;28;20226;-87
2022/09/28 14:30:10;;;;;;;5.77;3.33;;;13.20;99.90;;;;;;10506020;28;20235;-82
2022/09/28 14:35:57;;;;;;;9.80;3.20;;;13.10;99.90;;;;;;10500679;28;20317;-87
2022/09/28 14:41:32;;;;;;;11.83;5.97;;;13.00;99.90;;;;;;10513326;28;20224;-87
2022/09/28 14:47:32;;;;;;;6.40;3.40;;;13.00;99.90;;;;;;10515739;28;20243;-89
2022/09/28 14:53:03;;;;;;;6.20;3.83;;;13.00;1.00;;;;;;10513467;28;20186;-83
2022/09/28 14:58:28;;;;;;;10.13;4.60;;;12.90;1.00;;;;;;10513114;28;20205;-85
2022/09/28 15:04:03;;;;;;;5.13;3.03;;;12.90;1.00;;;;;;10500407;28;20224;-88
2022/09/28 15:09:33;;;;;;;18.97;8.87;;;12.90;1.00;;;;;;10496554;28;20281;-81
2022/09/28 15:15:18;;;;;;;19.80;9.63;;;12.80;1.00;;;;;;10466886;28;20268;-82
2022/09/28 15:20:44;;;;;;;26.43;14.07;;;12.80;1.00;;;;;;10520381;28;20193;-81
2022/09/28 15:26:18;;;;;;;28.57;14.77;;;12.80;99.90;;;;;;10523725;28;20217;-81
2022/09/28 15:31:41;;;;;;;31.23;15.27;;;12.80;99.90;;;;;;10517325;28;20544;-80
2022/09/28 15:37:07;;;;;;;30.27;14.97;;;12.70;99.90;;;;;;10524949;28;20189;-82
2022/09/28 15:42:35;;;;;;;30.00;15.93;;;12.60;1.00;;;;;;10494833;28;20218;-83
2022/09/28 15:48:18;;;;;;;29.27;14.67;;;12.60;1.00;;;;;;10496339;28;20268;-84
2022/09/28 15:54:08;;;;;;;33.30;18.87;;;12.60;99.90;;;;;;10524593;28;20540;-83
2022/09/28 15:59:38;;;;;;;62.93;38.23;;;12.50;99.90;;;;;;10469862;28;20224;-83
2022/09/28 16:05:00;;;;;;;87.37;47.03;;;12.40;1.00;;;;;;10458202;28;20205;-81
2022/09/28 16:10:33;;;;;;;60.30;34.80;;;12.40;99.90;;;;;;10524100;28;20415;-81
2022/09/28 16:15:58;;;;;;;26.07;17.20;;;12.30;1.00;;;;;;10482640;28;20188;-82
2022/09/28 16:21:24;;;;;;;21.33;12.53;;;12.30;1.00;;;;;;10499652;28;20201;-83
2022/09/28 16:26:45;;;;;;;18.57;11.93;;;12.30;99.90;;;;;;10526567;28;20217;-83
2022/09/28 16:32:25;;;;;;;28.20;14.50;;;12.20;1.00;;;;;;10509871;28;20534;-83
2022/09/28 16:37:55;;;;;;;17.93;12.10;;;12.10;18.40;;;;;;10508919;28;20274;-81
2022/09/28 16:43:22;;;;;;;39.50;22.70;;;12.10;99.90;;;;;;10521633;28;20504;-81
2022/09/28 16:48:49;;;;;;;32.33;18.50;;;12.00;1.00;;;;;;10522940;28;20232;-83
2022/09/28 17:00:02;;;;;;;18.27;11.83;;;11.80;99.90;;;;;;10491368;28;20193;-82
2022/09/28 17:05:24;;;;;;;17.93;11.33;;;11.70;99.90;;;;;;10500196;28;20211;-81
2022/09/28 17:10:52;;;;;;;23.53;14.50;;;11.60;1.00;;;;;;10513978;28;20204;-82
2022/09/28 17:16:33;;;;;;;25.50;15.53;;;11.40;99.90;;;;;;10499192;28;20246;-83
2022/09/28 17:22:15;;;;;;;24.73;16.90;;;11.30;1.00;;;;;;10509730;28;20249;-81
2022/09/28 17:27:39;;;;;;;28.10;17.63;;;11.20;1.00;;;;;;10554101;28;20210;-82
2022/09/28 17:33:00;;;;;;;35.30;19.80;;;11.10;1.00;;;;;;10524605;28;20203;-83
2022/09/28 17:38:22;;;;;;;42.33;24.30;;;11.00;1.00;;;;;;10510645;28;20223;-81
2022/09/28 17:43:44;;;;;;;45.93;25.27;;;10.90;1.00;;;;;;10514391;28;20242;-81
2022/09/28 17:49:09;;;;;;;44.60;23.70;;;10.80;1.00;;;;;;10520729;28;20224;-83
2022/09/28 17:54:30;;;;;;;52.27;32.57;;;10.80;1.00;;;;;;10520895;28;20197;-82
2022/09/28 17:59:51;;;;;;;73.50;44.73;;;10.80;1.00;;;;;;10492375;28;20189;-83
2022/09/28 18:05:18;;;;;;;97.73;62.83;;;10.80;1.00;;;;;;10506403;28;20196;-82
2022/09/28 18:10:39;;;;;;;98.80;64.13;;;10.70;1.00;;;;;;10488218;28;20188;-84
2022/09/28 18:16:01;;;;;;;108.70;69.30;;;10.60;1.00;;;;;;10522706;28;20191;-83
2022/09/28 18:21:23;;;;;;;95.10;57.00;;;10.50;1.00;;;;;;10520897;28;20491;-83
2022/09/28 18:26:44;;;;;;;88.30;53.53;;;10.30;1.00;;;;;;10530593;28;20519;-82
2022/09/28 18:32:06;;;;;;;83.50;51.70;;;10.20;1.00;;;;;;10555533;28;20187;-84
2022/09/28 18:37:27;;;;;;;92.80;53.70;;;10.10;1.00;;;;;;10519861;28;20194;-81
2022/09/28 18:42:49;;;;;;;90.20;54.70;;;10.00;1.00;;;;;;10500013;28;20546;-81
2022/09/28 18:48:10;;;;;;;112.97;63.07;;;9.90;1.00;;;;;;10504287;28;20244;-82
2022/09/28 18:53:33;;;;;;;134.83;76.23;;;9.80;1.00;;;;;;10504061;28;20482;-81
2022/09/28 18:58:57;;;;;;;123.40;75.47;;;9.80;1.00;;;;;;10490457;28;20235;-81
2022/09/28 19:04:21;;;;;;;125.97;70.50;;;9.80;1.00;;;;;;10462459;28;20194;-83
2022/09/28 19:09:43;;;;;;;111.30;60.30;;;9.80;1.00;;;;;;10521499;28;20228;-83
2022/09/28 19:15:04;;;;;;;102.10;53.47;;;9.90;1.00;;;;;;10471051;28;20198;-83
2022/09/28 19:20:25;;;;;;;93.37;52.67;;;9.90;1.00;;;;;;10520480;28;20486;-83
2022/09/28 19:25:47;;;;;;;95.50;49.97;;;10.00;1.00;;;;;;10523592;28;20205;-84
2022/09/28 19:31:10;;;;;;;91.73;45.90;;;10.00;1.00;;;;;;10526302;28;20198;-83
2022/09/28 19:36:32;;;;;;;76.40;39.70;;;10.10;1.00;;;;;;10484651;28;20189;-81
2022/09/28 19:41:56;;;;;;;74.50;36.30;;;10.10;1.00;;;;;;10544516;28;20206;-83
2022/09/28 19:47:20;;;;;;;64.13;36.03;;;10.10;1.00;;;;;;10497568;28;20550;-83
2022/09/28 19:52:41;;;;;;;65.03;37.77;;;10.10;1.00;;;;;;10508961;28;20218;-83
2022/09/28 19:58:03;;;;;;;60.73;32.93;;;10.10;1.00;;;;;;10497469;28;20193;-81
2022/09/28 20:03:25;;;;;;;37.43;23.13;;;10.20;1.00;;;;;;10488218;28;20203;-82
2022/09/28 20:08:46;;;;;;;23.10;14.03;;;10.20;1.00;;;;;;10480236;28;20220;-81
2022/09/28 20:14:08;;;;;;;14.90;9.40;;;10.30;1.00;;;;;;10509670;28;20382;-81
2022/09/28 20:19:29;;;;;;;11.97;7.37;;;10.30;1.00;;;;;;10509263;28;20202;-81
2022/09/28 20:24:50;;;;;;;9.90;6.90;;;10.80;1.00;;;;;;10519186;28;20198;-82
2022/09/28 20:30:12;;;;;;;8.00;6.43;;;10.30;1.00;;;;;;10537135;28;20392;-81
2022/09/28 20:35:33;;;;;;;10.37;7.07;;;10.20;99.90;;;;;;10519814;28;20199;-83
2022/09/28 20:40:59;;;;;;;14.67;7.47;;;10.20;1.00;;;;;;10522663;28;20544;-82
2022/09/28 20:46:21;;;;;;;11.73;7.07;;;10.10;1.00;;;;;;10482815;28;20250;-81
2022/09/28 20:51:42;;;;;;;12.93;7.93;;;10.10;1.00;;;;;;10509005;28;20205;-81
2022/09/28 20:57:16;;;;;;;9.57;7.10;;;10.10;1.00;;;;;;10494431;28;20405;-81
2022/09/28 21:02:37;;;;;;;10.47;6.33;;;10.10;1.00;;;;;;10522464;28;20504;-81
2022/09/28 21:07:58;;;;;;;11.70;7.30;;;10.00;1.00;;;;;;10507731;28;20228;-82
2022/09/28 21:13:20;;;;;;;9.37;5.93;;;10.00;1.00;;;;;;10521829;28;20190;-82
2022/09/28 21:18:41;;;;;;;7.57;5.83;;;9.90;1.00;;;;;;10521377;28;20198;-82
2022/09/28 21:24:03;;;;;;;6.13;4.30;;;9.90;1.00;;;;;;10524415;28;20507;-81
2022/09/28 21:29:25;;;;;;;5.87;4.17;;;9.80;1.00;;;;;;10564683;28;20227;-82
2022/09/28 21:34:46;;;;;;;6.20;4.67;;;9.90;1.00;;;;;;10496313;28;20618;-82
2022/09/28 21:40:09;;;;;;;6.30;5.43;;;9.90;1.00;;;;;;10498885;28;20275;-81
2022/09/28 21:45:31;;;;;;;5.27;4.77;;;9.80;1.00;;;;;;10512845;28;20458;-81
2022/09/28 21:51:05;;;;;;;6.07;4.03;;;9.80;1.00;;;;;;10506410;28;20217;-83
2022/09/28 21:56:26;;;;;;;7.03;4.30;;;9.80;1.00;;;;;;10492127;28;20494;-83
2022/09/28 22:01:47;;;;;;;4.73;3.80;;;9.80;1.00;;;;;;10505964;28;20206;-83
2022/09/28 22:07:09;;;;;;;7.70;4.77;;;9.80;1.00;;;;;;10506407;28;20294;-83
2022/09/28 22:12:30;;;;;;;6.47;4.80;;;9.80;1.00;;;;;;10519957;28;20201;-81
2022/09/28 22:17:52;;;;;;;5.50;4.07;;;9.70;1.00;;;;;;10505282;28;20191;-82
2022/09/28 22:23:13;;;;;;;4.60;4.20;;;9.70;1.00;;;;;;10505566;28;20391;-83
2022/09/28 22:28:34;;;;;;;6.23;4.77;;;9.70;1.00;;;;;;10541421;28;20286;-81
2022/09/28 22:33:56;;;;;;;4.67;3.63;;;9.70;1.00;;;;;;10490970;28;20250;-82
2022/09/28 22:39:17;;;;;;;10.67;6.73;;;9.70;1.00;;;;;;10504644;28;20552;-81
2022/09/28 22:44:39;;;;;;;8.93;4.90;;;9.70;1.00;;;;;;10515641;28;20550;-82
2022/09/28 22:50:00;;;;;;;8.83;4.67;;;9.60;1.00;;;;;;10533018;28;20295;-81
2022/09/28 22:55:21;;;;;;;9.90;5.00;;;9.60;1.00;;;;;;10489981;28;20194;-81
2022/09/28 23:00:43;;;;;;;6.87;4.43;;;9.50;1.00;;;;;;10490314;28;20263;-81
2022/09/28 23:06:05;;;;;;;4.67;3.23;;;9.60;1.00;;;;;;10504478;28;20584;-82
2022/09/28 23:11:28;;;;;;;3.77;3.00;;;9.60;1.00;;;;;;10503844;28;20202;-81
2022/09/28 23:16:49;;;;;;;3.67;2.90;;;9.50;1.00;;;;;;10504062;28;20194;-83
2022/09/28 23:22:10;;;;;;;3.10;2.80;;;9.50;1.00;;;;;;10500316;28;20411;-81
2022/09/28 23:27:32;;;;;;;4.47;3.17;;;9.50;1.00;;;;;;10538977;28;20269;-81
2022/09/28 23:32:53;;;;;;;5.40;3.73;;;9.60;1.00;;;;;;10560177;28;20488;-81
2022/09/28 23:38:16;;;;;;;5.20;3.70;;;9.60;1.00;;;;;;10526836;28;20250;-81
2022/09/28 23:43:38;;;;;;;4.53;3.63;;;9.60;1.00;;;;;;10492997;28;20490;-81
2022/09/28 23:48:59;;;;;;;5.07;3.60;;;9.60;1.00;;;;;;10517388;28;20230;-81
2022/09/28 23:54:20;;;;;;;6.17;4.73;;;9.70;1.00;;;;;;10520346;28;20186;-82
2022/09/28 23:59:41;;;;;;;3.90;3.47;;;9.70;1.00;;;;;;10483413;28;20198;-82
